Time;durP1;ratioP1;P1;durP2;ratioP2;P2;SDS_P1;SDS_P2;PMS_P1;PMS_P2;Temp;Humidity;BMP_temperature;BMP_pressure;BME280_temperature;BME280_humidity;BME280_pressure;Samples;Min_cycle;Max_cycle;Signal;HPM_P1;HPM_P2
2023/12/04 00:01:56;;;;;;;28.83;15.00;;;-0.70;99.90;;;;;;5074794;28;20278;-59
2023/12/04 00:04:23;;;;;;;26.38;14.63;;;-0.80;99.90;;;;;;5074424;28;20209;-59
2023/12/04 00:06:52;;;;;;;26.23;14.30;;;-0.70;99.90;;;;;;5075705;28;20833;-59
2023/12/04 00:09:20;;;;;;;21.65;13.48;;;-0.70;99.90;;;;;;5077662;28;20272;-59
2023/12/04 00:11:48;;;;;;;25.58;13.82;;;-0.80;99.90;;;;;;5074324;28;20789;-59
2023/12/04 00:14:16;;;;;;;24.20;13.77;;;-0.80;99.90;;;;;;5074413;28;20209;-59
2023/12/04 00:16:45;;;;;;;21.63;12.82;;;-0.80;99.90;;;;;;5074483;28;20662;-59
2023/12/04 00:19:13;;;;;;;22.60;13.15;;;-0.80;99.90;;;;;;5073987;28;20718;-61
2023/12/04 00:21:41;;;;;;;27.63;14.73;;;-0.80;99.90;;;;;;5074532;28;20209;-59
2023/12/04 00:24:09;;;;;;;22.98;13.68;;;-0.90;99.90;;;;;;5074417;28;20247;-59
2023/12/04 00:26:37;;;;;;;21.92;13.57;;;-0.90;99.90;;;;;;5074298;28;20773;-66
2023/12/04 00:29:05;;;;;;;21.13;12.45;;;-0.90;99.90;;;;;;5073963;28;20316;-59
2023/12/04 00:31:33;;;;;;;20.67;12.45;;;-1.00;99.90;;;;;;5074357;28;20255;-59
2023/12/04 00:34:02;;;;;;;19.63;12.50;;;-1.00;99.90;;;;;;5073900;28;20205;-59
2023/12/04 00:36:30;;;;;;;21.42;12.55;;;-1.00;99.90;;;;;;5073870;28;20209;-59
2023/12/04 00:38:58;;;;;;;21.40;12.65;;;-1.10;99.90;;;;;;5074243;28;20256;-59
2023/12/04 00:41:26;;;;;;;21.15;12.55;;;-1.10;99.90;;;;;;5068307;28;20248;-59
2023/12/04 00:43:54;;;;;;;21.50;12.02;;;-1.10;99.90;;;;;;5073621;28;20674;-59
2023/12/04 00:46:22;;;;;;;20.25;11.93;;;-1.20;99.90;;;;;;5073941;28;20209;-59
2023/12/04 00:48:50;;;;;;;20.70;12.30;;;-1.20;99.90;;;;;;5073689;28;20225;-59
2023/12/04 00:51:19;;;;;;;23.90;12.73;;;-1.20;99.90;;;;;;5072483;28;20212;-59
2023/12/04 00:53:47;;;;;;;20.65;11.90;;;-1.30;99.90;;;;;;5074095;28;20237;-59
2023/12/04 00:56:15;;;;;;;18.85;11.68;;;-1.30;99.90;;;;;;5080203;28;20205;-59
2023/12/04 01:09:59;;;;;;;21.45;12.30;;;-1.40;99.90;;;;;;5060668;28;20212;-59
2023/12/04 01:12:27;;;;;;;22.52;13.15;;;-1.50;99.90;;;;;;5042881;22;20628;-68
2023/12/04 01:14:55;;;;;;;19.58;12.32;;;-1.50;99.90;;;;;;5008149;28;20210;-67
2023/12/04 01:17:23;;;;;;;23.00;12.23;;;-1.50;99.90;;;;;;5016778;28;20242;-67
2023/12/04 01:19:52;;;;;;;21.55;13.07;;;-1.50;99.90;;;;;;5015560;28;20722;-68
2023/12/04 01:22:19;;;;;;;21.67;12.93;;;-1.50;99.90;;;;;;5033021;28;20321;-67
2023/12/04 01:24:47;;;;;;;18.83;12.20;;;-1.60;99.90;;;;;;5033097;28;20242;-68
2023/12/04 01:27:17;;;;;;;20.80;12.45;;;-1.50;99.90;;;;;;5033273;28;20297;-68
2023/12/04 01:29:44;;;;;;;22.42;12.98;;;-1.50;99.90;;;;;;5032970;28;20242;-68
2023/12/04 01:32:12;;;;;;;19.65;12.68;;;-1.60;99.90;;;;;;5033135;28;20302;-68
2023/12/04 01:34:40;;;;;;;25.08;12.80;;;-1.60;99.90;;;;;;5032716;28;20261;-67
2023/12/04 01:37:08;;;;;;;20.10;11.85;;;-1.60;99.90;;;;;;5033245;28;20199;-68
2023/12/04 01:39:36;;;;;;;20.25;12.10;;;-1.60;99.90;;;;;;5038882;28;20683;-68
2023/12/04 01:42:05;;;;;;;19.70;11.82;;;-1.60;99.90;;;;;;5045319;28;20221;-68
2023/12/04 01:44:35;;;;;;;19.35;11.98;;;-1.60;99.90;;;;;;5039123;28;20305;-68
2023/12/04 01:47:03;;;;;;;20.50;12.30;;;-1.70;99.90;;;;;;5035737;28;20199;-68
2023/12/04 01:49:31;;;;;;;22.15;12.52;;;-1.70;99.90;;;;;;5032627;28;20207;-68
2023/12/04 01:51:59;;;;;;;21.60;12.13;;;-1.70;99.90;;;;;;5032612;28;20602;-68
2023/12/04 01:54:27;;;;;;;22.70;13.27;;;-1.70;99.90;;;;;;5032653;28;20241;-68
2023/12/04 01:56:55;;;;;;;20.42;12.38;;;-1.70;99.90;;;;;;5032569;28;20577;-68
2023/12/04 01:59:23;;;;;;;23.80;13.13;;;-1.80;99.90;;;;;;5032333;28;20250;-68
2023/12/04 02:01:53;;;;;;;20.58;12.27;;;-1.80;99.90;;;;;;5032108;28;20692;-67
2023/12/04 02:04:21;;;;;;;23.38;12.70;;;-1.80;99.90;;;;;;5032359;28;20206;-68
2023/12/04 02:06:49;;;;;;;21.88;12.90;;;-1.80;99.90;;;;;;5032594;28;20207;-67
2023/12/04 02:09:17;;;;;;;25.13;13.68;;;-1.80;99.90;;;;;;5032411;28;20268;-68
2023/12/04 02:11:45;;;;;;;20.58;11.80;;;-1.80;99.90;;;;;;5043373;28;20240;-69
2023/12/04 02:14:13;;;;;;;24.80;12.85;;;-1.80;99.90;;;;;;5052074;28;20237;-68
2023/12/04 02:16:41;;;;;;;23.58;12.55;;;-1.90;99.90;;;;;;5052128;28;20202;-68
2023/12/04 02:19:11;;;;;;;24.73;13.50;;;-1.80;99.90;;;;;;5052172;28;20209;-68
2023/12/04 02:21:39;;;;;;;25.75;12.80;;;-1.80;99.90;;;;;;5051444;28;20260;-68
2023/12/04 02:24:08;;;;;;;23.48;12.60;;;-1.80;99.90;;;;;;5052159;28;20201;-68
2023/12/04 02:26:40;;;;;;;22.30;12.90;;;-1.80;99.90;;;;;;5051469;28;20208;-68
2023/12/04 02:29:10;;;;;;;21.42;11.90;;;-1.80;99.90;;;;;;5052067;28;20202;-68
2023/12/04 02:31:38;;;;;;;22.30;12.73;;;-1.80;99.90;;;;;;5051575;28;20320;-69
2023/12/04 02:34:06;;;;;;;22.23;13.10;;;-1.80;99.90;;;;;;5051976;28;20229;-69
2023/12/04 02:36:34;;;;;;;21.02;12.48;;;-1.80;99.90;;;;;;5051640;28;20206;-69
2023/12/04 02:39:02;;;;;;;23.58;12.73;;;-1.80;99.90;;;;;;5051835;28;20243;-69
2023/12/04 02:41:31;;;;;;;23.00;12.75;;;-1.80;99.90;;;;;;5034634;28;20245;-68
2023/12/04 02:43:59;;;;;;;22.27;13.18;;;-1.80;99.90;;;;;;5051984;28;20221;-68
2023/12/04 02:46:27;;;;;;;24.50;12.60;;;-1.80;99.90;;;;;;5051591;28;20248;-68
2023/12/04 02:48:55;;;;;;;22.48;13.25;;;-1.80;99.90;;;;;;5051874;28;20618;-68
2023/12/04 02:51:26;;;;;;;23.75;12.68;;;-1.80;99.90;;;;;;5051042;28;20221;-69
2023/12/04 02:53:54;;;;;;;21.67;12.70;;;-1.80;99.90;;;;;;5051939;28;20204;-68
2023/12/04 02:56:22;;;;;;;21.50;13.32;;;-1.80;99.90;;;;;;5050860;28;20719;-69
2023/12/04 02:58:51;;;;;;;24.25;13.18;;;-1.80;99.90;;;;;;5051431;28;20714;-68
2023/12/04 03:01:19;;;;;;;20.25;12.68;;;-1.80;99.90;;;;;;5051178;28;20272;-69
2023/12/04 03:03:47;;;;;;;21.35;12.52;;;-1.70;99.90;;;;;;5051449;28;20281;-68
2023/12/04 03:06:15;;;;;;;24.77;13.05;;;-1.70;99.90;;;;;;5051278;28;20205;-69
2023/12/04 03:08:43;;;;;;;22.00;13.30;;;-1.70;99.90;;;;;;5051223;28;20220;-68
2023/12/04 03:11:11;;;;;;;24.20;13.55;;;-1.70;99.90;;;;;;5051013;28;20288;-69
2023/12/04 03:13:39;;;;;;;23.25;13.27;;;-1.70;99.90;;;;;;5051163;28;20227;-68
2023/12/04 03:16:17;;;;;;;22.20;13.02;;;-1.70;99.90;;;;;;5056811;28;20670;-68
2023/12/04 03:18:45;;;;;;;21.50;13.00;;;-1.80;99.90;;;;;;5057955;28;20678;-69
2023/12/04 03:21:13;;;;;;;23.25;13.30;;;-1.80;99.90;;;;;;5052464;28;20218;-68
2023/12/04 03:23:41;;;;;;;22.10;12.85;;;-1.80;99.90;;;;;;5057863;28;20287;-68
2023/12/04 03:26:10;;;;;;;26.00;13.43;;;-1.80;99.90;;;;;;5057500;28;20289;-68
2023/12/04 03:28:39;;;;;;;24.73;13.43;;;-1.80;99.90;;;;;;5058113;28;20209;-68
2023/12/04 03:31:07;;;;;;;23.60;13.27;;;-1.80;99.90;;;;;;5057784;28;20781;-68
2023/12/04 03:33:36;;;;;;;22.30;13.00;;;-1.80;99.90;;;;;;5057638;28;20208;-68
2023/12/04 03:36:05;;;;;;;23.92;12.93;;;-1.80;99.90;;;;;;5057487;28;20212;-68
2023/12/04 03:38:33;;;;;;;21.33;12.52;;;-1.80;99.90;;;;;;5058032;28;20296;-68
2023/12/04 03:41:01;;;;;;;24.15;13.52;;;-1.80;99.90;;;;;;5049945;28;20320;-68
2023/12/04 03:43:29;;;;;;;23.63;14.00;;;-1.80;99.90;;;;;;5057525;28;20222;-68
2023/12/04 03:45:58;;;;;;;20.83;12.75;;;-1.80;99.90;;;;;;5057525;28;20296;-68
2023/12/04 03:48:25;;;;;;;23.38;13.25;;;-1.80;99.90;;;;;;5057554;28;20214;-68
2023/12/04 03:50:56;;;;;;;26.70;13.88;;;-1.80;99.90;;;;;;5044564;28;20253;-68
2023/12/04 03:53:24;;;;;;;26.55;14.52;;;-1.80;99.90;;;;;;5042027;28;20199;-68
2023/12/04 03:55:52;;;;;;;25.48;13.27;;;-1.80;99.90;;;;;;5043254;28;20207;-68
2023/12/04 03:58:20;;;;;;;22.75;13.57;;;-1.80;99.90;;;;;;5035406;28;20269;-69
2023/12/04 04:00:48;;;;;;;26.27;13.68;;;-1.80;99.90;;;;;;5051618;28;20260;-68
2023/12/04 04:03:16;;;;;;;25.55;14.48;;;-1.70;99.90;;;;;;5037374;28;20699;-68
2023/12/04 04:05:43;;;;;;;24.42;12.90;;;-1.80;99.90;;;;;;5054122;28;20206;-68
2023/12/04 04:08:13;;;;;;;28.00;13.82;;;-1.80;99.90;;;;;;5057430;28;20252;-69
2023/12/04 04:10:40;;;;;;;22.65;13.20;;;-1.80;99.90;;;;;;5047601;28;20264;-69
2023/12/04 04:13:08;;;;;;;24.35;13.63;;;-1.80;99.90;;;;;;5045145;28;20576;-69
2023/12/04 04:15:36;;;;;;;23.52;13.40;;;-1.70;99.90;;;;;;5044336;28;20214;-68
2023/12/04 04:18:04;;;;;;;23.80;13.90;;;-1.80;99.90;;;;;;5051016;28;20206;-68
2023/12/04 04:20:32;;;;;;;22.95;12.90;;;-1.70;99.90;;;;;;5056904;28;20225;-68
2023/12/04 04:23:00;;;;;;;21.20;13.70;;;-1.70;99.90;;;;;;5056968;28;20671;-68
2023/12/04 04:25:29;;;;;;;24.08;13.45;;;-1.70;99.90;;;;;;5056710;28;20755;-68
2023/12/04 04:27:57;;;;;;;24.08;13.63;;;-1.70;99.90;;;;;;5048484;28;20709;-68
2023/12/04 04:30:25;;;;;;;23.27;13.68;;;-1.70;99.90;;;;;;5027436;28;20652;-68
2023/12/04 04:32:53;;;;;;;24.38;14.05;;;-1.70;99.90;;;;;;5039675;28;20275;-68
2023/12/04 04:35:21;;;;;;;23.15;12.95;;;-1.70;99.90;;;;;;5053362;28;20669;-69
2023/12/04 04:37:49;;;;;;;27.15;14.77;;;-1.70;99.90;;;;;;5053609;28;20271;-68
2023/12/04 04:40:18;;;;;;;27.65;14.73;;;-1.60;99.90;;;;;;5051978;28;20264;-69
2023/12/04 04:42:48;;;;;;;22.27;13.63;;;-1.60;99.90;;;;;;5052840;28;20264;-68
2023/12/04 04:45:16;;;;;;;25.23;13.90;;;-1.70;99.90;;;;;;5053703;28;20226;-69
2023/12/04 04:47:44;;;;;;;23.55;14.48;;;-1.60;99.90;;;;;;5053850;28;20675;-69
2023/12/04 04:50:11;;;;;;;24.92;13.40;;;-1.60;99.90;;;;;;5053467;28;20229;-68
2023/12/04 04:52:39;;;;;;;23.05;13.50;;;-1.60;99.90;;;;;;5053747;28;20343;-69
2023/12/04 04:55:08;;;;;;;26.13;14.32;;;-1.60;99.90;;;;;;5053375;28;20237;-69
2023/12/04 04:57:36;;;;;;;22.40;13.70;;;-1.60;99.90;;;;;;5053722;28;20294;-69
2023/12/04 05:00:06;;;;;;;27.23;14.63;;;-1.60;99.90;;;;;;5053602;28;20229;-69
2023/12/04 05:02:35;;;;;;;26.02;14.32;;;-1.60;99.90;;;;;;5053475;28;20288;-69
2023/12/04 05:05:04;;;;;;;24.05;13.98;;;-1.60;99.90;;;;;;5053228;28;20645;-70
2023/12/04 05:07:32;;;;;;;23.23;13.35;;;-1.70;99.90;;;;;;5053302;28;20204;-69
2023/12/04 05:10:00;;;;;;;23.33;13.35;;;-1.70;99.90;;;;;;5051139;28;20304;-69
2023/12/04 05:12:28;;;;;;;25.70;13.93;;;-1.70;99.90;;;;;;5053143;28;20218;-69
2023/12/04 05:14:55;;;;;;;26.52;14.93;;;-1.60;99.90;;;;;;5033839;28;20245;-69
2023/12/04 05:17:25;;;;;;;22.88;13.95;;;-1.60;99.90;;;;;;5048989;28;20693;-70
2023/12/04 05:19:53;;;;;;;21.60;13.27;;;-1.60;99.90;;;;;;5033125;28;20204;-69
2023/12/04 05:22:21;;;;;;;24.17;13.57;;;-1.60;99.90;;;;;;5048573;28;20209;-68
2023/12/04 05:24:48;;;;;;;22.98;13.20;;;-1.60;99.90;;;;;;5040110;28;20734;-68
2023/12/04 05:27:16;;;;;;;27.00;15.02;;;-1.70;99.90;;;;;;5053078;28;20284;-68
2023/12/04 05:29:44;;;;;;;23.70;14.45;;;-1.70;99.90;;;;;;5052254;28;20289;-68
2023/12/04 05:32:12;;;;;;;24.85;13.82;;;-1.70;99.90;;;;;;5052661;28;20238;-69
2023/12/04 05:34:41;;;;;;;22.83;14.15;;;-1.60;99.90;;;;;;5052370;28;20225;-69
2023/12/04 05:37:09;;;;;;;23.10;13.98;;;-1.70;99.90;;;;;;5047151;28;20584;-68
2023/12/04 05:39:37;;;;;;;24.67;14.32;;;-1.70;99.90;;;;;;5049723;28;20210;-69
2023/12/04 05:42:05;;;;;;;24.02;13.80;;;-1.70;99.90;;;;;;5045402;28;20202;-69
2023/12/04 05:44:34;;;;;;;26.33;14.57;;;-1.70;99.90;;;;;;5052399;28;20770;-69
2023/12/04 05:47:02;;;;;;;24.02;14.48;;;-1.60;99.90;;;;;;5048022;28;20206;-68
2023/12/04 05:49:30;;;;;;;25.15;15.07;;;-1.60;99.90;;;;;;5049127;28;20206;-69
2023/12/04 05:52:00;;;;;;;25.30;14.00;;;-1.60;99.90;;;;;;5052125;28;20222;-69
2023/12/04 05:54:27;;;;;;;25.52;14.18;;;-1.60;99.90;;;;;;5044335;28;20488;-68
2023/12/04 05:56:55;;;;;;;23.92;14.45;;;-1.60;99.90;;;;;;5052238;28;20233;-68
2023/12/04 05:59:23;;;;;;;24.17;14.40;;;-1.60;99.90;;;;;;5039631;28;20233;-68
2023/12/04 06:01:51;;;;;;;25.63;15.60;;;-1.60;99.90;;;;;;5041823;28;20309;-68
2023/12/04 06:04:19;;;;;;;23.60;13.80;;;-1.50;99.90;;;;;;5052319;28;20221;-69
2023/12/04 06:06:46;;;;;;;24.83;14.60;;;-1.50;99.90;;;;;;5051972;28;20296;-68
2023/12/04 06:09:16;;;;;;;22.88;13.95;;;-1.50;99.90;;;;;;5045344;28;20207;-68
2023/12/04 06:11:44;;;;;;;22.65;14.32;;;-1.50;99.90;;;;;;5031879;28;20238;-69
2023/12/04 06:14:14;;;;;;;24.42;14.63;;;-1.50;99.90;;;;;;5031806;28;20738;-68
2023/12/04 06:16:42;;;;;;;24.33;13.85;;;-1.50;99.90;;;;;;5031954;28;20230;-68
2023/12/04 06:19:10;;;;;;;30.77;15.30;;;-1.40;99.90;;;;;;5032179;28;20289;-68
2023/12/04 06:21:38;;;;;;;23.88;13.88;;;-1.50;99.90;;;;;;5031528;28;20664;-67
2023/12/04 06:24:08;;;;;;;25.27;14.48;;;-1.50;99.90;;;;;;5032205;28;20206;-69
2023/12/04 06:26:37;;;;;;;25.73;14.60;;;-1.40;99.90;;;;;;5031453;28;20660;-68
2023/12/04 06:29:06;;;;;;;31.23;16.67;;;-1.40;99.90;;;;;;5036186;28;20257;-68
2023/12/04 06:31:34;;;;;;;28.13;16.23;;;-1.40;99.90;;;;;;5042780;28;20260;-68
2023/12/04 06:34:02;;;;;;;27.52;16.15;;;-1.40;99.90;;;;;;5034712;28;20230;-68
2023/12/04 06:36:30;;;;;;;23.02;13.75;;;-1.40;99.90;;;;;;5034650;28;20578;-68
2023/12/04 06:38:58;;;;;;;27.88;14.88;;;-1.40;99.90;;;;;;5033283;28;20203;-68
2023/12/04 06:41:26;;;;;;;26.98;15.00;;;-1.40;99.90;;;;;;5039176;28;20605;-68
2023/12/04 06:43:57;;;;;;;24.90;14.90;;;-1.40;99.90;;;;;;5029801;28;20641;-68
2023/12/04 06:46:25;;;;;;;25.60;15.75;;;-1.40;99.90;;;;;;5027617;28;20222;-69
2023/12/04 06:48:53;;;;;;;22.48;14.00;;;-1.40;99.90;;;;;;5035912;28;20248;-68
2023/12/04 06:51:21;;;;;;;24.80;14.48;;;-1.30;99.90;;;;;;5054574;22;20234;-53
2023/12/04 06:53:49;;;;;;;21.27;13.38;;;-1.40;99.90;;;;;;5046721;28;20211;-53
2023/12/04 06:56:17;;;;;;;22.75;14.00;;;-1.30;99.90;;;;;;5047115;28;20290;-54
2023/12/04 06:58:47;;;;;;;24.23;14.93;;;-1.30;99.90;;;;;;5049248;28;20231;-56
2023/12/04 07:01:17;;;;;;;25.88;14.05;;;-1.40;99.90;;;;;;5050071;28;20230;-55
2023/12/04 07:03:45;;;;;;;22.52;13.00;;;-1.30;99.90;;;;;;5048457;28;20233;-53
2023/12/04 07:06:14;;;;;;;23.58;14.00;;;-1.30;99.90;;;;;;5046958;28;20773;-54
2023/12/04 07:08:42;;;;;;;23.75;13.65;;;-1.30;99.90;;;;;;5042207;28;20625;-55
2023/12/04 07:11:10;;;;;;;21.67;13.50;;;-1.30;99.90;;;;;;5045023;28;20769;-56
2023/12/04 07:13:38;;;;;;;24.80;14.20;;;-1.30;99.90;;;;;;5050304;28;20296;-58
2023/12/04 07:16:06;;;;;;;22.33;14.13;;;-1.20;99.90;;;;;;5048329;28;20210;-57
2023/12/04 07:18:36;;;;;;;23.38;13.07;;;-1.20;99.90;;;;;;5048981;28;20209;-58
2023/12/04 07:21:05;;;;;;;21.98;12.82;;;-1.20;99.90;;;;;;5041237;28;20332;-58
2023/12/04 07:23:32;;;;;;;23.65;13.63;;;-1.20;99.90;;;;;;5050089;28;20222;-58
2023/12/04 07:26:00;;;;;;;24.25;14.15;;;-1.20;99.90;;;;;;5049453;28;20329;-58
2023/12/04 07:28:28;;;;;;;26.58;13.90;;;-1.20;99.90;;;;;;5050305;28;20668;-56
2023/12/04 07:30:56;;;;;;;21.90;12.95;;;-1.10;99.90;;;;;;5049451;28;20304;-58
2023/12/04 07:33:24;;;;;;;23.92;14.35;;;-1.10;99.90;;;;;;5050302;28;20197;-59
2023/12/04 07:35:53;;;;;;;23.40;13.40;;;-1.10;99.90;;;;;;5049028;28;20209;-58
2023/12/04 07:38:21;;;;;;;21.58;13.30;;;-1.10;99.90;;;;;;5049959;28;20756;-58
2023/12/04 07:40:50;;;;;;;23.70;13.45;;;-1.10;99.90;;;;;;5050141;28;20602;-58
2023/12/04 07:43:18;;;;;;;25.23;14.45;;;-1.10;99.90;;;;;;5050302;28;20627;-59
2023/12/04 07:45:45;;;;;;;22.55;13.75;;;-1.10;99.90;;;;;;5049474;28;20232;-59
2023/12/04 07:48:13;;;;;;;21.73;13.43;;;-1.00;99.90;;;;;;5049118;28;20198;-59
2023/12/04 07:50:41;;;;;;;24.27;14.13;;;-1.00;99.90;;;;;;5048684;28;20288;-58
2023/12/04 07:53:12;;;;;;;23.50;13.43;;;-1.00;99.90;;;;;;5047575;28;20230;-58
2023/12/04 07:55:39;;;;;;;21.65;12.90;;;-0.90;99.90;;;;;;5047539;28;20483;-58
2023/12/04 07:58:07;;;;;;;21.90;13.68;;;-0.90;99.90;;;;;;5050191;28;20255;-58
2023/12/04 08:00:35;;;;;;;24.27;13.52;;;-0.90;99.90;;;;;;5050109;28;20297;-58
2023/12/04 08:03:03;;;;;;;20.95;13.07;;;-0.90;99.90;;;;;;5053483;28;20628;-58
2023/12/04 08:05:31;;;;;;;20.15;12.52;;;-0.80;99.90;;;;;;5053194;28;20225;-57
2023/12/04 08:08:00;;;;;;;23.90;13.55;;;-0.80;99.90;;;;;;5052706;28;20202;-58
2023/12/04 08:10:29;;;;;;;21.42;12.77;;;-0.80;99.90;;;;;;5053859;28;20369;-58
2023/12/04 08:12:57;;;;;;;22.73;14.05;;;-0.80;99.90;;;;;;5053140;28;20202;-55
2023/12/04 08:15:25;;;;;;;23.08;14.25;;;-0.70;99.90;;;;;;5053892;28;20642;-55
2023/12/04 08:17:53;;;;;;;21.92;14.23;;;-0.70;99.90;;;;;;5053306;28;20289;-55
2023/12/04 08:20:22;;;;;;;24.30;13.77;;;-0.70;99.90;;;;;;5053792;28;20217;-55
2023/12/04 08:23:03;;;;;;;23.40;14.23;;;-0.60;99.90;;;;;;5052931;28;20202;-55
2023/12/04 08:25:32;;;;;;;19.30;12.05;;;-0.60;99.90;;;;;;5053266;28;20303;-54
2023/12/04 08:28:00;;;;;;;20.15;12.52;;;-0.50;99.90;;;;;;5053009;28;20747;-57
2023/12/04 08:30:28;;;;;;;22.50;12.50;;;-0.50;99.90;;;;;;5050725;28;20675;-54
2023/12/04 08:32:56;;;;;;;19.42;12.48;;;-0.50;99.90;;;;;;5052801;28;20293;-57
2023/12/04 08:35:24;;;;;;;19.85;12.63;;;-0.50;99.90;;;;;;5053687;28;20244;-56
2023/12/04 08:37:52;;;;;;;22.15;12.55;;;-0.40;99.90;;;;;;5052446;28;20210;-55
2023/12/04 08:40:20;;;;;;;19.27;12.20;;;-0.40;99.90;;;;;;5053897;28;20202;-57
2023/12/04 08:42:49;;;;;;;21.30;13.05;;;-0.30;99.90;;;;;;5053337;28;20206;-57
2023/12/04 08:45:17;;;;;;;24.48;14.43;;;-0.20;99.90;;;;;;5053397;28;20209;-55
2023/12/04 08:47:46;;;;;;;30.90;17.10;;;-0.10;99.90;;;;;;5053002;28;20296;-55
2023/12/04 08:50:14;;;;;;;22.02;13.48;;;-0.10;99.90;;;;;;5055330;28;20673;-56
2023/12/04 08:52:42;;;;;;;20.27;12.70;;;-0.10;99.90;;;;;;5073129;28;20286;-57
2023/12/04 08:55:10;;;;;;;20.55;12.05;;;0.00;99.90;;;;;;5072172;28;20619;-57
2023/12/04 08:57:39;;;;;;;18.67;12.68;;;0.00;99.90;;;;;;5073211;28;20220;-55
2023/12/04 09:00:10;;;;;;;18.15;12.13;;;0.00;99.90;;;;;;5072772;28;20692;-55
2023/12/04 09:02:38;;;;;;;22.40;11.63;;;0.10;99.90;;;;;;5072741;28;20867;-56
2023/12/04 09:05:16;;;;;;;19.52;12.30;;;0.20;99.90;;;;;;5072503;28;20201;-55
2023/12/04 09:07:45;;;;;;;17.48;11.95;;;0.40;99.90;;;;;;5071761;28;20225;-58
2023/12/04 09:10:16;;;;;;;18.85;12.60;;;0.50;99.90;;;;;;5078160;28;20653;-56
2023/12/04 09:13:04;;;;;;;22.08;11.40;;;0.60;99.90;;;;;;5079662;28;20204;-56
2023/12/04 09:15:33;;;;;;;19.60;12.10;;;0.50;99.90;;;;;;5086217;28;20274;-55
2023/12/04 09:18:01;;;;;;;19.58;12.32;;;0.50;99.90;;;;;;5072350;28;20690;-55
2023/12/04 09:20:29;;;;;;;17.63;11.15;;;0.40;99.90;;;;;;5072789;28;20201;-56
2023/12/04 09:22:57;;;;;;;17.25;11.68;;;0.40;99.90;;;;;;5078404;28;20296;-55
2023/12/04 09:25:35;;;;;;;18.15;11.75;;;0.40;99.90;;;;;;5085134;28;20205;-58
2023/12/04 09:28:03;;;;;;;17.52;11.00;;;0.40;99.90;;;;;;5071702;28;20241;-58
2023/12/04 09:30:32;;;;;;;20.67;12.38;;;0.40;99.90;;;;;;5072611;28;20201;-57
2023/12/04 09:33:01;;;;;;;23.20;11.95;;;0.30;99.90;;;;;;5071809;28;21588;-56
2023/12/04 09:35:29;;;;;;;19.85;12.27;;;0.30;99.90;;;;;;5069627;28;20247;-57
2023/12/04 09:37:57;;;;;;;19.58;11.48;;;0.30;99.90;;;;;;5070901;28;20280;-56
2023/12/04 09:40:25;;;;;;;34.97;14.93;;;0.30;99.90;;;;;;5076674;28;20201;-55
2023/12/04 09:42:53;;;;;;;20.85;12.40;;;0.30;99.90;;;;;;5076722;28;20345;-55
2023/12/04 09:45:22;;;;;;;18.90;11.88;;;0.30;99.90;;;;;;5071487;28;20713;-56
2023/12/04 09:47:51;;;;;;;20.35;11.82;;;0.30;99.90;;;;;;5071408;28;20228;-57
2023/12/04 09:50:21;;;;;;;20.23;12.13;;;0.30;99.90;;;;;;5071290;28;20221;-57
2023/12/04 09:52:49;;;;;;;18.08;11.27;;;0.30;99.90;;;;;;5062698;28;20205;-57
2023/12/04 09:55:17;;;;;;;22.27;11.38;;;0.30;99.90;;;;;;5061248;28;20663;-55
2023/12/04 09:57:46;;;;;;;22.17;13.30;;;0.20;99.90;;;;;;5063752;28;20281;-57
2023/12/04 10:00:14;;;;;;;18.02;11.15;;;0.30;99.90;;;;;;5053548;28;20363;-56
2023/12/04 10:02:42;;;;;;;20.52;12.05;;;0.30;99.90;;;;;;5054458;28;20259;-57
2023/12/04 10:05:12;;;;;;;21.23;12.27;;;0.30;99.90;;;;;;5057774;28;20202;-54
2023/12/04 10:07:40;;;;;;;21.60;11.93;;;0.30;99.90;;;;;;5064194;28;20248;-56
2023/12/04 10:10:08;;;;;;;20.50;12.38;;;0.30;99.90;;;;;;5053835;28;20223;-57
2023/12/04 10:12:37;;;;;;;25.50;12.43;;;0.40;99.90;;;;;;5054391;28;20228;-54
2023/12/04 10:15:06;;;;;;;21.58;12.60;;;0.40;99.90;;;;;;5058119;28;20244;-56
2023/12/04 10:17:36;;;;;;;18.88;11.65;;;0.40;99.90;;;;;;5064657;28;20552;-57
2023/12/04 10:20:11;;;;;;;21.30;12.18;;;0.40;99.90;;;;;;5053433;28;20626;-55
2023/12/04 10:22:54;;;;;;;19.08;12.80;;;0.40;99.90;;;;;;5054353;28;20280;-56
2023/12/04 10:25:23;;;;;;;21.55;12.68;;;0.40;99.90;;;;;;5056416;28;20202;-55
2023/12/04 10:27:51;;;;;;;21.05;11.35;;;0.50;99.90;;;;;;5065419;28;20228;-57
2023/12/04 10:30:24;;;;;;;17.08;11.00;;;0.50;99.90;;;;;;5065387;28;20670;-56
2023/12/04 10:32:55;;;;;;;19.10;11.65;;;0.50;99.90;;;;;;5063636;28;20689;-57
2023/12/04 10:35:23;;;;;;;20.00;12.10;;;0.60;99.90;;;;;;5060907;28;20655;-56
2023/12/04 10:37:56;;;;;;;16.83;11.13;;;0.70;99.90;;;;;;5054799;28;20202;-56
2023/12/04 10:40:24;;;;;;;17.58;11.45;;;0.70;99.90;;;;;;5056534;28;20252;-55
2023/12/04 10:43:10;;;;;;;23.60;11.60;;;0.70;99.90;;;;;;5057044;28;20347;-57
2023/12/04 10:45:38;;;;;;;20.20;11.52;;;0.80;99.90;;;;;;5060886;28;20561;-57
2023/12/04 10:48:06;;;;;;;18.20;10.75;;;0.80;99.90;;;;;;5058120;28;20222;-56
2023/12/04 10:50:35;;;;;;;17.25;11.20;;;0.80;99.90;;;;;;5062075;28;20217;-56
2023/12/04 10:53:04;;;;;;;18.05;11.48;;;0.80;99.90;;;;;;5072575;28;20340;-57
2023/12/04 10:55:32;;;;;;;19.15;10.95;;;0.90;99.90;;;;;;5071208;28;20659;-56
2023/12/04 10:58:00;;;;;;;20.95;11.25;;;0.90;99.90;;;;;;5087182;28;20196;-57
2023/12/04 11:00:28;;;;;;;17.52;10.73;;;0.90;99.90;;;;;;5089046;28;20261;-57
2023/12/04 11:02:56;;;;;;;21.80;11.55;;;0.90;99.90;;;;;;5081945;28;20216;-56
2023/12/04 11:05:25;;;;;;;18.42;10.40;;;0.90;99.90;;;;;;5091130;28;20209;-56
2023/12/04 11:07:55;;;;;;;21.17;11.60;;;0.90;99.90;;;;;;5090232;28;20216;-55
2023/12/04 11:10:46;;;;;;;21.63;11.25;;;0.90;99.90;;;;;;5084526;28;20232;-55
2023/12/04 11:13:18;;;;;;;17.67;11.15;;;0.90;99.90;;;;;;5084340;28;20224;-55
2023/12/04 11:15:50;;;;;;;18.20;9.77;;;0.90;99.90;;;;;;5088613;28;20209;-55
2023/12/04 11:18:18;;;;;;;20.58;11.50;;;0.90;99.90;;;;;;5073604;28;20204;-55
2023/12/04 11:20:49;;;;;;;17.05;10.73;;;0.80;99.90;;;;;;5088689;28;20239;-57
2023/12/04 11:23:17;;;;;;;16.58;10.88;;;0.80;99.90;;;;;;5083353;28;20208;-56
2023/12/04 11:25:47;;;;;;;16.60;10.52;;;0.80;99.90;;;;;;5088392;28;20232;-56
2023/12/04 11:28:15;;;;;;;16.13;10.13;;;0.80;99.90;;;;;;5088952;28;20690;-55
2023/12/04 11:30:43;;;;;;;18.17;11.55;;;0.80;99.90;;;;;;5088273;28;20342;-56
2023/12/04 11:33:11;;;;;;;18.83;10.55;;;0.80;99.90;;;;;;5076992;28;20609;-56
2023/12/04 11:35:40;;;;;;;18.55;10.07;;;0.90;99.90;;;;;;5076479;28;20216;-55
2023/12/04 11:38:09;;;;;;;18.58;11.38;;;0.90;99.90;;;;;;5085471;28;20287;-56
2023/12/04 11:40:37;;;;;;;17.80;12.15;;;0.90;99.90;;;;;;5088121;28;20197;-56
2023/12/04 11:43:22;;;;;;;17.48;10.93;;;0.90;99.90;;;;;;5075529;28;20201;-56
2023/12/04 11:45:50;;;;;;;17.52;10.90;;;0.90;99.90;;;;;;5088522;28;20204;-55
2023/12/04 11:48:18;;;;;;;16.48;10.20;;;0.80;99.90;;;;;;5088686;28;20225;-56
2023/12/04 11:50:46;;;;;;;23.15;10.90;;;0.80;99.90;;;;;;5079912;28;20233;-55
2023/12/04 11:53:14;;;;;;;19.23;11.05;;;0.80;99.90;;;;;;5060313;28;20278;-57
2023/12/04 11:55:42;;;;;;;19.35;10.93;;;0.80;99.90;;;;;;5057194;28;20267;-56
2023/12/04 11:58:11;;;;;;;22.67;11.80;;;0.80;99.90;;;;;;5055860;28;20656;-56
2023/12/04 12:00:39;;;;;;;18.58;12.23;;;0.70;99.90;;;;;;5057268;28;20642;-55
2023/12/04 12:03:09;;;;;;;19.05;12.20;;;0.60;99.90;;;;;;5057800;28;20220;-56
2023/12/04 12:05:50;;;;;;;18.65;11.57;;;0.60;99.90;;;;;;5055871;28;20236;-55
2023/12/04 12:08:19;;;;;;;20.25;11.88;;;0.60;99.90;;;;;;5062352;28;20283;-57
2023/12/04 12:10:47;;;;;;;20.98;12.50;;;0.60;99.90;;;;;;5064407;28;20320;-57
2023/12/04 12:13:16;;;;;;;25.02;12.32;;;0.60;99.90;;;;;;5064883;28;20578;-58
2023/12/04 12:15:46;;;;;;;20.23;12.77;;;0.60;99.90;;;;;;5065246;28;20212;-59
2023/12/04 12:18:14;;;;;;;20.85;12.02;;;0.60;99.90;;;;;;5063748;28;20205;-59
2023/12/04 12:20:42;;;;;;;16.25;11.38;;;0.60;99.90;;;;;;5066492;28;20261;-58
2023/12/04 12:23:10;;;;;;;22.00;12.65;;;0.60;99.90;;;;;;5066417;28;20205;-59
2023/12/04 12:25:39;;;;;;;20.35;11.38;;;0.60;99.90;;;;;;5061828;28;20663;-57
2023/12/04 12:28:07;;;;;;;19.98;12.07;;;0.70;99.90;;;;;;5060488;28;20253;-59
2023/12/04 12:30:37;;;;;;;20.48;12.10;;;0.70;99.90;;;;;;5065805;28;20255;-58
2023/12/04 12:33:04;;;;;;;20.55;11.80;;;0.70;99.90;;;;;;5064118;28;20205;-61
2023/12/04 12:35:32;;;;;;;19.65;11.73;;;0.70;99.90;;;;;;5060957;28;20217;-59
2023/12/04 12:38:00;;;;;;;22.77;12.32;;;0.80;99.90;;;;;;5060274;28;20198;-59
2023/12/04 12:40:29;;;;;;;21.63;12.88;;;0.80;99.90;;;;;;5064726;28;20209;-60
2023/12/04 12:43:05;;;;;;;21.38;12.80;;;0.80;99.90;;;;;;5058902;28;20206;-59
2023/12/04 12:45:43;;;;;;;24.17;12.48;;;0.80;99.90;;;;;;5065757;28;20204;-59
2023/12/04 12:48:12;;;;;;;26.35;12.75;;;0.80;99.90;;;;;;5062875;28;20225;-60
2023/12/04 12:50:40;;;;;;;20.65;12.02;;;0.80;99.90;;;;;;5062268;28;20214;-60